Map

Track Data

SID SEASON NUMBER BASIN SUBBASIN NAME ISO_TIME NATURE LAT LON WMO_WIND WMO_PRES WMO_AGENCY TRACK_TYPE DIST2LAND LANDFALL IFLAG USA_AGENCY USA_ATCF_ID USA_LAT USA_LON USA_RECORD USA_STATUS USA_WIND USA_PRES USA_SSHS USA_R34_NE USA_R34_SE USA_R34_SW USA_R34_NW USA_R50_NE USA_R50_SE USA_R50_SW USA_R50_NW USA_R64_NE USA_R64_SE USA_R64_SW USA_R64_NW USA_POCI USA_ROCI USA_RMW USA_EYE TOKYO_LAT TOKYO_LON TOKYO_GRADE TOKYO_WIND TOKYO_PRES TOKYO_R50_DIR TOKYO_R50_LONG TOKYO_R50_SHORT TOKYO_R30_DIR TOKYO_R30_LONG TOKYO_R30_SHORT TOKYO_LAND CMA_LAT CMA_LON CMA_CAT CMA_WIND CMA_PRES HKO_LAT HKO_LON HKO_CAT HKO_WIND HKO_PRES NEWDELHI_LAT NEWDELHI_LON NEWDELHI_GRADE NEWDELHI_WIND NEWDELHI_PRES NEWDELHI_CI NEWDELHI_DP NEWDELHI_POCI REUNION_LAT REUNION_LON REUNION_TYPE REUNION_WIND REUNION_PRES REUNION_TNUM REUNION_CI REUNION_RMW REUNION_R34_NE REUNION_R34_SE REUNION_R34_SW REUNION_R34_NW REUNION_R50_NE REUNION_R50_SE REUNION_R50_SW REUNION_R50_NW REUNION_R64_NE REUNION_R64_SE REUNION_R64_SW REUNION_R64_NW BOM_LAT BOM_LON BOM_TYPE BOM_WIND BOM_PRES BOM_TNUM BOM_CI BOM_RMW BOM_R34_NE BOM_R34_SE BOM_R34_SW BOM_R34_NW BOM_R50_NE BOM_R50_SE BOM_R50_SW BOM_R50_NW BOM_R64_NE BOM_R64_SE BOM_R64_SW BOM_R64_NW BOM_ROCI BOM_POCI BOM_EYE BOM_POS_METHOD BOM_PRES_METHOD NADI_LAT NADI_LON NADI_CAT NADI_WIND NADI_PRES WELLINGTON_LAT WELLINGTON_LON WELLINGTON_WIND WELLINGTON_PRES DS824_LAT DS824_LON DS824_STAGE DS824_WIND DS824_PRES TD9636_LAT TD9636_LON TD9636_STAGE TD9636_WIND TD9636_PRES TD9635_LAT TD9635_LON TD9635_WIND TD9635_PRES TD9635_ROCI NEUMANN_LAT NEUMANN_LON NEUMANN_CLASS NEUMANN_WIND NEUMANN_PRES MLC_LAT MLC_LON MLC_CLASS MLC_WIND MLC_PRES USA_GUST BOM_GUST BOM_GUST_PER REUNION_GUST REUNION_GUST_PER USA_SEAHGT USA_SEARAD_NE USA_SEARAD_SE USA_SEARAD_SW USA_SEARAD_NW STORM_SPEED STORM_DIR
1860061S13085 1860 11 SI MM NOT_NAMED 1860-03-01 06:00:00 NR -13.2000 85.1000 spur-split 1992 1992 _____O________ -1 -13.2000 85.1000 99 9.90000 3 238
1860061S13085 1860 11 SI MM NOT_NAMED 1860-03-01 09:00:00 NR -13.2862 84.9617 spur-split 2008 2008 _____P________ -1 -13.2862 84.9617 99 3 238
1860061S13085 1860 11 SI MM NOT_NAMED 1860-03-01 12:00:00 NR -13.3726 84.8151 spur-split 2031 2031 _____P________ -1 -13.3726 84.8151 99 3 240
1860061S13085 1860 11 SI MM NOT_NAMED 1860-03-01 15:00:00 NR -13.4592 84.6520 spur-split 2047 2047 _____P________ -1 -13.4592 84.6520 99 4 243
1860061S13085 1860 11 SI MM NOT_NAMED 1860-03-01 18:00:00 NR -13.5462 84.4641 spur-split 2064 2064 _____P________ -1 -13.5462 84.4641 99 4 246
1860061S13085 1860 11 SI MM NOT_NAMED 1860-03-01 21:00:00 NR -13.6337 84.2433 spur-split 2096 2096 _____P________ -1 -13.6337 84.2433 99 5 250
1860061S13085 1860 11 SI MM NOT_NAMED 1860-03-02 00:00:00 NR -13.7219 83.9812 spur-split 2120 2120 _____P________ -1 -13.7219 83.9812 99 6 252
1860061S13085 1860 11 SI MM NOT_NAMED 1860-03-02 03:00:00 NR -13.8107 83.6695 spur-split 2153 2153 _____P________ -1 -13.8107 83.6695 99 7 255
1860061S13085 1860 11 SI MM NOT_NAMED 1860-03-02 06:00:00 NR -13.9000 83.3000 spur-split 2194 2194 _____O________ -1 -13.9000 83.3000 99 9.90000 8 257
1860061S13085 1860 11 SI MM NOT_NAMED 1860-03-02 09:00:00 NR -13.9903 82.8669 spur-split 2235 2235 _____P________ -1 -13.9903 82.8669 99 9 258
1860061S13085 1860 11 SI MM NOT_NAMED 1860-03-02 12:00:00 NR -14.0842 82.3751 spur-split 2249 2246 _____P________ -1 -14.0842 82.3751 99 10 259
1860061S13085 1860 11 SI MM NOT_NAMED 1860-03-02 15:00:00 NR -14.1848 81.8320 spur-split 2255 2254 _____P________ -1 -14.1848 81.8320 99 11 259
1860061S13085 1860 11 SI MM NOT_NAMED 1860-03-02 18:00:00 NR -14.2952 81.2448 spur-split 2264 2263 _____P________ -1 -14.2952 81.2448 99 12 259
1860061S13085 1860 11 SI MM NOT_NAMED 1860-03-02 21:00:00 NR -14.4186 80.6209 spur-split 2274 2274 _____P________ -1 -14.4186 80.6209 99 13 258
1860061S13085 1860 11 SI MM NOT_NAMED 1860-03-03 00:00:00 NR -14.5583 79.9674 spur-split 2297 2297 _____P________ -1 -14.5583 79.9674 99 13 257
1860061S13085 1860 11 SI MM NOT_NAMED 1860-03-03 03:00:00 NR -14.7176 79.2915 spur-split 2312 2284 _____P________ -1 -14.7176 79.2915 99 14 256
1860061S13085 1860 11 SI MM NOT_NAMED 1860-03-03 06:00:00 NR -14.9000 78.6000 reunion spur-split 2284 2205 _____O________ -1 -14.9000 78.6000 99 9.90000 14 254
1860061S13085 1860 11 SI MM NOT_NAMED 1860-03-03 09:00:00 NR -15.1067 77.8985 spur-split 2205 2127 _____P________ -1 -15.1067 77.8985 99 15 252
1860061S13085 1860 11 SI MM NOT_NAMED 1860-03-03 12:00:00 NR -15.3360 77.1700 spur-split 2127 2045 _____P________ -1 -15.3360 77.1700 99 15 251
1860061S13085 1860 11 SI MM NOT_NAMED 1860-03-03 15:00:00 NR -15.5844 76.4244 spur-split 2035 1957 _____P________ -1 -15.5844 76.4244 99 15 250
1860061S13085 1860 11 SI MM NOT_NAMED 1860-03-03 18:00:00 NR -15.8485 75.6720 spur-split 1957 1875 _____P________ -1 -15.8485 75.6720 99 15 249
1860061S13085 1860 11 SI MM NOT_NAMED 1860-03-03 21:00:00 NR -16.1252 74.9230 spur-split 1865 1784 _____P________ -1 -16.1252 74.9230 99 15 248
1860061S13085 1860 11 SI MM NOT_NAMED 1860-03-04 00:00:00 NR -16.4113 74.1876 spur-split 1784 1703 _____P________ -1 -16.4113 74.1876 99 15 247
1860061S13085 1860 11 SI MM NOT_NAMED 1860-03-04 03:00:00 NR -16.7038 73.4765 spur-split 1703 1622 _____P________ -1 -16.7038 73.4765 99 15 246
1860061S13085 1860 11 SI MM NOT_NAMED 1860-03-04 06:00:00 NR -17.0000 72.8000 reunion spur-split 1622 1551 _____O________ -1 -17.0000 72.8000 99 9.90000 14 246
1860061S13085 1860 11 SI MM NOT_NAMED 1860-03-04 09:00:00 NR -17.2685 72.1742 spur-split 1551 1484 _____P________ -1 -17.2685 72.1742 99 13 245
1860061S13085 1860 11 SI MM NOT_NAMED 1860-03-04 12:00:00 NR -17.5422 71.5782 spur-split 1484 1414 _____P________ -1 -17.5422 71.5782 99 12 243
1860061S13085 1860 11 SI MM NOT_NAMED 1860-03-04 15:00:00 NR -17.8231 71.0097 spur-split 1414 1355 _____P________ -1 -17.8231 71.0097 99 12 242
1860061S13085 1860 11 SI MM NOT_NAMED 1860-03-04 18:00:00 NR -18.1131 70.4665 spur-split 1355 1297 _____P________ -1 -18.1131 70.4665 99 12 240
1860061S13085 1860 11 SI MM NOT_NAMED 1860-03-04 21:00:00 NR -18.4140 69.9462 spur-split 1286 1239 _____P________ -1 -18.4140 69.9462 99 11 238
1860061S13085 1860 11 SI MM NOT_NAMED 1860-03-05 00:00:00 NR -18.7276 69.4466 spur-split 1228 1181 _____P________ -1 -18.7276 69.4466 99 11 235
1860061S13085 1860 11 SI MM NOT_NAMED 1860-03-05 03:00:00 NR -19.0557 68.9653 spur-split 1179 1123 _____P________ -1 -19.0557 68.9653 99 11 233
1860061S13085 1860 11 SI MM NOT_NAMED 1860-03-05 06:00:00 NR -19.4000 68.5000 reunion spur-split 1123 1067 _____O________ -1 -19.4000 68.5000 99 9.90000 12 233
1860061S13085 1860 11 SI MM NOT_NAMED 1860-03-05 09:00:00 NR -19.7547 67.9916 spur-split 1066 1012 _____P________ -1 -19.7547 67.9916 99 12 232
1860061S13085 1860 11 SI MM NOT_NAMED 1860-03-05 12:00:00 NR -20.1258 67.4973 spur-split 1012 958 _____P________ -1 -20.1258 67.4973 99 12 230
1860061S13085 1860 11 SI MM NOT_NAMED 1860-03-05 15:00:00 NR -20.5114 67.0218 spur-split 958 917 _____P________ -1 -20.5114 67.0218 99 12 228
1860061S13085 1860 11 SI MM NOT_NAMED 1860-03-05 18:00:00 NR -20.9100 66.5699 spur-split 918 878 _____P________ -1 -20.9100 66.5699 99 12 225
1860061S13085 1860 11 SI MM NOT_NAMED 1860-03-05 21:00:00 NR -21.3198 66.1467 spur-split 869 843 _____P________ -1 -21.3198 66.1467 99 11 222
1860061S13085 1860 11 SI MM NOT_NAMED 1860-03-06 00:00:00 NR -21.7391 65.7572 spur-split 844 812 _____P________ -1 -21.7391 65.7572 99 11 219
1860061S13085 1860 11 SI MM NOT_NAMED 1860-03-06 03:00:00 NR -22.1664 65.4065 spur-split 815 794 _____P________ -1 -22.1664 65.4065 99 11 215
1860061S13085 1860 11 SI MM NOT_NAMED 1860-03-06 06:00:00 NR -22.6000 65.1000 reunion spur-split 797 789 _____O________ -1 -22.6000 65.1000 99 9.90000 10 209
1860061S13085 1860 11 SI MM NOT_NAMED 1860-03-06 09:00:00 NR -23.0556 64.8801 spur-split 797 787 _____P________ -1 -23.0556 64.8801 99 10 201
1860061S13085 1860 11 SI MM NOT_NAMED 1860-03-06 12:00:00 NR -23.5236 64.7117 spur-split 795 795 _____P________ -1 -23.5236 64.7117 99 10 196
1860061S13085 1860 11 SI MM NOT_NAMED 1860-03-06 15:00:00 NR -23.9969 64.5794 spur-split 810 806 _____P________ -1 -23.9969 64.5794 99 10 193
1860061S13085 1860 11 SI MM NOT_NAMED 1860-03-06 18:00:00 NR -24.4688 64.4673 spur-split 828 820 _____P________ -1 -24.4688 64.4673 99 10 192
1860061S13085 1860 11 SI MM NOT_NAMED 1860-03-06 21:00:00 NR -24.9322 64.3595 spur-split 844 842 _____P________ -1 -24.9322 64.3595 99 9 193
1860061S13085 1860 11 SI MM NOT_NAMED 1860-03-07 00:00:00 NR -25.3799 64.2400 spur-split 861 861 _____P________ -1 -25.3799 64.2400 99 9 195
1860061S13085 1860 11 SI MM NOT_NAMED 1860-03-07 03:00:00 NR -25.8049 64.0923 spur-split 882 882 _____P________ -1 -25.8049 64.0923 99 9 201
1860061S13085 1860 11 SI MM NOT_NAMED 1860-03-07 06:00:00 NR -26.2000 63.9000 reunion spur-split 897 897 _____O________ -1 -26.2000 63.9000 99 9.90000 9 208
1860061S13085 1860 11 SI MM NOT_NAMED 1860-03-07 09:00:00 NR -26.5597 63.6504 spur-split 915 908 _____P________ -1 -26.5597 63.6504 99 8 216
1860061S13085 1860 11 SI MM NOT_NAMED 1860-03-07 12:00:00 NR -26.8865 63.3466 spur-split 914 914 _____P________ -1 -26.8865 63.3466 99 9 223
1860061S13085 1860 11 SI MM NOT_NAMED 1860-03-07 15:00:00 NR -27.1847 62.9959 spur-split 922 916 _____P________ -1 -27.1847 62.9959 99 9 229
1860061S13085 1860 11 SI MM NOT_NAMED 1860-03-07 18:00:00 NR -27.4587 62.6057 spur-split 926 920 _____P________ -1 -27.4587 62.6057 99 9 234
1860061S13085 1860 11 SI MM NOT_NAMED 1860-03-07 21:00:00 NR -27.7127 62.1835 spur-split 924 919 _____P________ -1 -27.7127 62.1835 99 9 237
1860061S13085 1860 11 SI MM NOT_NAMED 1860-03-08 00:00:00 NR -27.9512 61.7368 spur-split 930 926 _____P________ -1 -27.9512 61.7368 99 9 240
1860061S13085 1860 11 SI MM NOT_NAMED 1860-03-08 03:00:00 NR -28.1788 61.2731 spur-split 934 926 _____P________ -1 -28.1788 61.2731 99 9 241
1860061S13085 1860 11 SI MM NOT_NAMED 1860-03-08 06:00:00 NR -28.4000 60.8000 reunion spur-split 936 _____O________ -1 -28.4000 60.8000 99 9.90000 9 242

About IBTrACS Database

This database is a web-friendly format of International Best Track Archive for Climate Stewardship (IBTrACS), a global best track data archive curated by NOAA dating back to 1842.

Updated: 2021-10-21